If you wish to contribute or participate in the discussions about articles you are invited to join SKYbrary as a registered user

 Actions

Teniente Coronel Luis a Mantilla Airport

From SKYbrary Wiki

SETU
Airport
ICAO: SETU – IATA: TUA
Summary
Name Teniente Coronel Luis a Mantilla Airport
Region South America and Caribbean
Territory Ecuador EC.gif
Location , Carchi
Serving Tulcan
Elevation 2,941.015 m
9,649 ft
9,649 ft2,941.015 m
Type medium airport
Coordinates 0° 48' 34.22" N, 77° 42' 29.00" W
Runways
Designator Length Width Surface ROPS
5/23 2460 m8,070.866 ft
30 m98.425 ft
ASP /


METAR
Observation SETU 132100Z 11004KT 9999 -DZ OVC016 12/12 Q1027
Station Tulcan / El Rosal
Date/Time 13 December 2019 21:00:00
Wind direction 110°
Wind speed 04 kts
Lowest cloud amount overcast
Temperature 12°C
Dew point 12°C
Humidity 100%
QNH 1027 hPa
Weather condition light drizzle